Time;durP1;ratioP1;P1;durP2;ratioP2;P2;SDS_P1;SDS_P2;PMS_P1;PMS_P2;Temp;Humidity;BMP_temperature;BMP_pressure;BME280_temperature;BME280_humidity;BME280_pressure;Samples;Min_cycle;Max_cycle;Signal;HPM_P1;HPM_P2
2022/05/19 00:01:04;;;;;;;7.93;4.03;;;23.10;62.40;;;;;;5052396;28;20055;-54
2022/05/19 00:03:33;;;;;;;8.02;4.22;;;23.10;62.40;;;;;;5052616;28;20052;-55
2022/05/19 00:05:59;;;;;;;7.43;4.18;;;23.10;62.40;;;;;;5051592;28;20057;-54
2022/05/19 00:08:24;;;;;;;7.38;3.88;;;23.10;62.40;;;;;;5052576;28;20051;-55
2022/05/19 00:10:51;;;;;;;7.72;3.88;;;23.10;62.40;;;;;;5052423;28;20041;-55
2022/05/19 00:13:16;;;;;;;8.73;4.68;;;23.10;62.40;;;;;;5049845;28;20057;-55
2022/05/19 00:15:42;;;;;;;6.80;4.00;;;23.10;62.40;;;;;;5051621;28;20052;-55
2022/05/19 00:18:07;;;;;;;7.70;4.15;;;23.10;62.40;;;;;;5051510;28;20045;-55
2022/05/19 00:20:33;;;;;;;8.23;4.13;;;23.10;63.00;;;;;;5051392;28;20095;-55
2022/05/19 00:22:58;;;;;;;8.68;4.35;;;23.10;62.40;;;;;;5052297;28;20103;-56
2022/05/19 00:25:24;;;;;;;7.63;4.07;;;23.10;62.40;;;;;;5052577;28;20068;-55
2022/05/19 00:27:49;;;;;;;8.27;4.57;;;23.10;62.40;;;;;;5051307;28;20136;-55
2022/05/19 00:30:15;;;;;;;7.20;4.35;;;23.00;62.30;;;;;;5052150;28;20131;-55
2022/05/19 00:32:40;;;;;;;9.18;4.82;;;23.10;62.40;;;;;;5050732;28;20060;-55
2022/05/19 00:35:06;;;;;;;7.20;4.35;;;23.00;62.30;;;;;;5051506;28;20045;-55
2022/05/19 00:37:31;;;;;;;8.07;4.57;;;23.00;62.30;;;;;;5052071;28;20045;-54
2022/05/19 00:39:57;;;;;;;7.28;4.00;;;23.00;62.30;;;;;;5051122;28;20044;-55
2022/05/19 00:45:07;;;;;;;8.52;4.07;;;23.00;62.30;;;;;;5052476;28;20044;-55
2022/05/19 00:47:55;;;;;;;8.23;4.90;;;23.00;62.30;;;;;;5051571;28;20044;-54
2022/05/19 00:50:50;;;;;;;8.05;4.55;;;23.00;62.30;;;;;;5051327;28;20051;-55
2022/05/19 00:53:31;;;;;;;8.93;5.03;;;23.00;62.30;;;;;;5052411;28;20045;-55
2022/05/19 00:56:10;;;;;;;7.22;4.20;;;23.00;62.30;;;;;;5050963;28;20424;-55
2022/05/19 00:58:46;;;;;;;7.28;4.57;;;23.00;62.40;;;;;;5051130;28;20073;-54
2022/05/19 01:01:12;;;;;;;6.80;4.53;;;23.00;62.30;;;;;;5051744;28;20055;-55
2022/05/19 01:03:41;;;;;;;8.60;4.68;;;23.00;62.40;;;;;;5050695;28;20174;-55
2022/05/19 01:06:11;;;;;;;9.48;4.55;;;23.00;62.30;;;;;;5051159;28;20047;-54
2022/05/19 01:08:57;;;;;;;7.70;4.35;;;23.00;62.30;;;;;;5049960;28;20045;-55
2022/05/19 01:11:22;;;;;;;6.93;4.57;;;23.00;62.30;;;;;;5051534;28;20056;-55
2022/05/19 01:13:48;;;;;;;7.50;4.43;;;23.00;62.30;;;;;;5051655;28;20041;-55
2022/05/19 01:16:13;;;;;;;7.93;4.20;;;23.00;62.30;;;;;;5050937;28;20045;-55
2022/05/19 01:18:39;;;;;;;7.82;4.63;;;23.00;62.30;;;;;;5050550;28;20095;-54
2022/05/19 01:21:06;;;;;;;8.63;4.38;;;23.00;62.30;;;;;;5050763;28;20447;-55
2022/05/19 01:23:42;;;;;;;10.07;4.55;;;23.00;62.30;;;;;;5051170;28;20064;-54
2022/05/19 01:26:45;;;;;;;8.73;4.70;;;23.00;62.30;;;;;;5054286;28;20106;-54
2022/05/19 01:29:11;;;;;;;8.40;4.57;;;23.00;62.30;;;;;;5053747;28;20538;-55
2022/05/19 01:31:39;;;;;;;7.30;4.75;;;23.00;62.30;;;;;;5054278;28;20056;-54
2022/05/19 01:34:06;;;;;;;6.15;4.15;;;23.00;62.30;;;;;;5055556;28;20048;-55
2022/05/19 01:36:32;;;;;;;8.35;4.45;;;22.90;62.30;;;;;;5054819;28;20043;-55
2022/05/19 01:39:06;;;;;;;7.07;4.90;;;22.90;62.20;;;;;;5055119;28;20127;-54
2022/05/19 01:41:48;;;;;;;7.78;4.82;;;22.90;62.20;;;;;;5055322;28;20076;-55
2022/05/19 01:44:43;;;;;;;8.85;4.57;;;22.90;62.20;;;;;;5053534;28;20048;-54
2022/05/19 01:47:33;;;;;;;7.50;4.53;;;22.90;62.20;;;;;;5053897;28;20496;-54
2022/05/19 01:50:15;;;;;;;7.25;4.53;;;22.90;62.20;;;;;;5048094;28;20096;-56
2022/05/19 01:53:04;;;;;;;10.15;5.63;;;22.90;62.20;;;;;;5052711;28;20048;-55
2022/05/19 01:55:51;;;;;;;8.65;4.88;;;22.90;62.30;;;;;;5054624;28;20052;-55
2022/05/19 01:58:49;;;;;;;6.60;4.73;;;22.90;62.20;;;;;;5054091;28;20400;-54
2022/05/19 02:01:15;;;;;;;;;;;22.90;62.30;;;;;;5049738;28;20056;-55
2022/05/19 02:03:48;;;;;;;9.15;4.82;;;22.80;62.20;;;;;;5054452;28;19986;-55
2022/05/19 02:06:20;;;;;;;10.02;5.50;;;22.80;62.30;;;;;;5052692;28;20059;-55
2022/05/19 02:08:54;;;;;;;9.60;4.88;;;22.90;62.30;;;;;;5054647;28;20037;-55
2022/05/19 02:11:28;;;;;;;8.68;5.38;;;22.80;62.20;;;;;;5052954;28;20378;-55
2022/05/19 02:13:54;;;;;;;7.28;5.43;;;22.80;62.20;;;;;;5054555;28;20053;-55
2022/05/19 02:16:20;;;;;;;8.57;4.30;;;22.80;62.20;;;;;;5053442;28;20063;-55
2022/05/19 02:18:46;;;;;;;7.60;5.05;;;22.80;62.20;;;;;;5052505;28;20091;-54
2022/05/19 02:21:11;;;;;;;10.18;5.38;;;22.80;62.20;;;;;;5054664;28;20076;-55
2022/05/19 02:23:37;;;;;;;6.65;4.45;;;22.80;62.20;;;;;;5054556;28;20037;-55
2022/05/19 02:26:02;;;;;;;7.40;5.57;;;22.80;62.20;;;;;;5052084;28;20071;-55
2022/05/19 02:28:43;;;;;;;8.93;5.88;;;22.80;62.20;;;;;;5054364;28;20079;-55
2022/05/19 02:31:08;;;;;;;8.98;5.82;;;22.80;62.20;;;;;;5053348;28;20037;-55
2022/05/19 02:33:34;;;;;;;9.02;5.43;;;22.80;62.20;;;;;;5053821;28;20461;-55
2022/05/19 02:36:00;;;;;;;9.60;5.38;;;22.80;62.20;;;;;;5053318;28;20444;-55
2022/05/19 02:38:26;;;;;;;9.60;5.30;;;22.80;62.10;;;;;;5053997;28;20041;-55
2022/05/19 02:40:51;;;;;;;11.98;6.07;;;22.80;62.10;;;;;;5051641;28;20575;-55
2022/05/19 02:43:17;;;;;;;9.68;5.70;;;22.80;62.10;;;;;;5054069;28;20043;-55
2022/05/19 02:45:43;;;;;;;9.18;6.07;;;22.80;62.10;;;;;;5053949;28;20075;-55
2022/05/19 02:48:09;;;;;;;11.82;6.68;;;22.80;62.10;;;;;;5053380;28;20082;-55
2022/05/19 02:50:35;;;;;;;8.85;5.85;;;22.80;62.10;;;;;;5054100;28;20045;-55
2022/05/19 02:53:00;;;;;;;9.23;5.50;;;22.80;62.10;;;;;;5053507;28;20049;-55
2022/05/19 02:55:26;;;;;;;9.60;5.88;;;22.80;62.10;;;;;;5053459;28;20037;-55
2022/05/19 02:57:51;;;;;;;9.63;5.70;;;22.80;62.10;;;;;;5053685;28;20048;-55
2022/05/19 03:00:19;;;;;;;10.88;6.47;;;22.80;62.10;;;;;;5053795;28;20041;-55
2022/05/19 03:02:45;;;;;;;8.60;5.25;;;22.80;62.10;;;;;;5052761;28;20393;-55
2022/05/19 03:05:15;;;;;;;9.15;5.82;;;22.80;62.00;;;;;;5053401;28;20045;-55
2022/05/19 03:07:41;;;;;;;9.65;5.50;;;22.80;62.00;;;;;;5052649;28;20052;-55
2022/05/19 03:10:07;;;;;;;7.72;5.80;;;22.80;62.00;;;;;;5053702;28;20044;-55
2022/05/19 03:12:33;;;;;;;10.88;6.20;;;22.80;62.00;;;;;;5053721;28;20047;-54
2022/05/19 03:14:58;;;;;;;12.15;6.85;;;22.80;62.00;;;;;;5052592;28;20041;-55
2022/05/19 03:17:24;;;;;;;11.60;6.63;;;22.80;62.10;;;;;;5053341;28;20049;-55
2022/05/19 03:19:51;;;;;;;10.40;6.60;;;22.80;62.00;;;;;;5052854;28;20106;-55
2022/05/19 03:22:17;;;;;;;9.35;6.10;;;22.80;62.10;;;;;;5052784;28;20079;-55
2022/05/19 03:24:42;;;;;;;8.98;6.20;;;22.70;62.00;;;;;;5053245;28;20088;-55
2022/05/19 03:27:08;;;;;;;11.68;7.13;;;22.80;62.00;;;;;;5052708;28;20041;-55
2022/05/19 03:29:33;;;;;;;9.82;6.75;;;22.70;61.90;;;;;;5052255;28;20041;-54
2022/05/19 03:31:59;;;;;;;10.80;6.53;;;22.70;62.00;;;;;;5053142;28;20051;-55
2022/05/19 03:34:24;;;;;;;12.85;7.38;;;22.70;61.90;;;;;;5053026;28;20072;-54
2022/05/19 03:36:50;;;;;;;9.07;6.28;;;22.70;61.90;;;;;;5052210;28;20400;-55
2022/05/19 03:39:15;;;;;;;10.73;7.05;;;22.70;61.90;;;;;;5053049;28;20091;-55
2022/05/19 03:41:41;;;;;;;10.88;6.20;;;22.70;61.90;;;;;;5052866;28;20044;-55
2022/05/19 03:44:06;;;;;;;10.93;7.07;;;22.70;61.90;;;;;;5052323;28;20040;-55
2022/05/19 03:46:32;;;;;;;9.93;6.82;;;22.70;61.90;;;;;;5052776;28;20049;-55
2022/05/19 03:48:57;;;;;;;10.27;7.10;;;22.70;61.90;;;;;;5052388;28;20047;-55
2022/05/19 03:51:25;;;;;;;8.90;6.30;;;22.70;61.90;;;;;;5051972;28;20045;-55
2022/05/19 03:53:51;;;;;;;9.98;6.40;;;22.70;61.90;;;;;;5052673;28;20045;-55
2022/05/19 03:56:17;;;;;;;11.95;7.05;;;22.70;61.90;;;;;;5052964;28;20123;-55
2022/05/19 03:58:43;;;;;;;11.23;7.20;;;22.70;61.90;;;;;;5051818;28;20040;-55
2022/05/19 04:01:08;;;;;;;10.63;7.40;;;22.70;61.90;;;;;;5052593;28;20087;-55
2022/05/19 04:03:34;;;;;;;10.15;6.88;;;22.70;61.90;;;;;;5052049;28;20087;-55
2022/05/19 04:05:59;;;;;;;11.48;6.82;;;22.70;61.90;;;;;;5050800;28;20045;-55
2022/05/19 04:08:25;;;;;;;10.88;7.38;;;22.70;61.90;;;;;;5052356;28;20052;-55
2022/05/19 04:10:50;;;;;;;11.00;6.70;;;22.70;61.90;;;;;;5052242;28;20103;-55
2022/05/19 04:13:16;;;;;;;9.88;7.15;;;22.60;61.80;;;;;;5051812;28;20366;-54
2022/05/19 04:15:41;;;;;;;10.02;6.45;;;22.70;61.90;;;;;;5052162;28;20127;-55
2022/05/19 04:18:07;;;;;;;8.63;6.53;;;22.60;61.80;;;;;;5051949;28;20045;-54
2022/05/19 04:20:33;;;;;;;8.75;6.30;;;22.70;61.90;;;;;;5052335;28;20077;-55
2022/05/19 04:22:59;;;;;;;9.93;6.57;;;22.70;61.90;;;;;;5052222;28;20048;-55
2022/05/19 04:25:25;;;;;;;13.50;7.80;;;22.70;61.80;;;;;;5051826;28;20073;-55
2022/05/19 04:27:50;;;;;;;10.27;6.45;;;22.70;61.90;;;;;;5052251;28;20037;-55
2022/05/19 04:30:16;;;;;;;11.55;6.68;;;22.70;61.90;;;;;;5052481;28;20051;-54
2022/05/19 04:32:42;;;;;;;10.50;6.93;;;22.70;61.90;;;;;;5051111;28;20041;-55
2022/05/19 04:35:08;;;;;;;10.40;7.20;;;22.70;61.90;;;;;;5052272;28;20061;-55
2022/05/19 04:37:34;;;;;;;10.60;6.60;;;22.60;61.80;;;;;;5052419;28;20164;-55
2022/05/19 04:40:01;;;;;;;11.52;7.53;;;22.60;61.80;;;;;;5051182;28;20127;-56
2022/05/19 04:42:27;;;;;;;24.83;19.57;;;22.70;61.90;;;;;;5051904;28;20392;-56
2022/05/19 04:44:54;;;;;;;32.85;23.10;;;22.60;61.90;;;;;;5051866;28;20484;-56
2022/05/19 04:47:19;;;;;;;32.10;23.40;;;22.50;62.00;;;;;;5051670;28;20048;-56
2022/05/19 04:49:45;;;;;;;30.55;23.67;;;22.50;62.20;;;;;;5043824;28;20053;-55
2022/05/19 04:52:10;;;;;;;34.38;24.90;;;22.40;62.40;;;;;;5032488;28;20038;-56
2022/05/19 04:54:36;;;;;;;31.95;24.40;;;22.30;62.60;;;;;;5031483;28;20054;-56
2022/05/19 04:57:01;;;;;;;31.10;24.40;;;22.20;62.70;;;;;;5032068;28;20048;-57
2022/05/19 04:59:27;;;;;;;32.35;24.17;;;22.20;62.90;;;;;;5034760;28;20124;-56
2022/05/19 05:01:52;;;;;;;31.08;23.63;;;22.20;63.10;;;;;;5035065;28;20103;-56
2022/05/19 05:04:19;;;;;;;33.97;23.33;;;22.10;63.20;;;;;;5037400;28;20045;-56
2022/05/19 05:06:44;;;;;;;32.50;22.95;;;22.10;63.30;;;;;;5039145;28;20418;-56
2022/05/19 05:09:10;;;;;;;30.02;21.88;;;22.10;63.50;;;;;;5035093;28;20045;-56
2022/05/19 05:11:37;;;;;;;30.05;22.55;;;22.00;63.60;;;;;;5035938;28;20056;-56
2022/05/19 05:14:03;;;;;;;32.63;24.30;;;22.00;63.80;;;;;;5035355;28;20091;-56
2022/05/19 05:16:28;;;;;;;32.85;23.48;;;22.00;64.00;;;;;;5034899;28;20092;-56
2022/05/19 05:18:54;;;;;;;30.95;22.65;;;22.00;64.20;;;;;;5035304;28;20037;-56
2022/05/19 05:21:19;;;;;;;29.90;21.55;;;22.00;64.40;;;;;;5035149;28;20390;-56
2022/05/19 05:23:45;;;;;;;25.20;20.23;;;22.00;64.50;;;;;;5035494;28;20068;-56
2022/05/19 05:26:10;;;;;;;28.33;20.90;;;22.00;64.50;;;;;;5035750;28;20045;-56
2022/05/19 05:28:36;;;;;;;27.30;19.70;;;22.00;64.50;;;;;;5034869;28;20502;-55
2022/05/19 05:31:02;;;;;;;27.20;19.48;;;21.90;64.50;;;;;;5035536;28;20063;-54
2022/05/19 05:33:28;;;;;;;24.70;18.48;;;22.00;64.60;;;;;;5035533;28;20041;-54
2022/05/19 05:35:53;;;;;;;24.20;17.00;;;22.10;64.60;;;;;;5034655;28;20091;-54
2022/05/19 05:38:19;;;;;;;22.35;17.30;;;22.10;64.50;;;;;;5035664;28;20136;-54
2022/05/19 05:40:45;;;;;;;22.67;17.02;;;22.10;64.70;;;;;;5035288;28;20045;-54
2022/05/19 05:43:18;;;;;;;20.85;15.50;;;22.20;64.80;;;;;;5034879;28;20065;-54
2022/05/19 05:45:45;;;;;;;24.13;16.80;;;22.20;64.80;;;;;;5033999;28;20120;-54
2022/05/19 05:48:10;;;;;;;23.70;14.93;;;22.30;64.80;;;;;;5035065;28;20451;-52
2022/05/19 05:50:36;;;;;;;20.02;14.55;;;22.30;64.70;;;;;;5034349;28;20041;-54
2022/05/19 05:53:03;;;;;;;19.45;13.50;;;22.30;64.60;;;;;;5035001;28;20484;-54
2022/05/19 05:55:29;;;;;;;17.17;13.25;;;22.40;64.60;;;;;;5035162;28;20094;-54
2022/05/19 05:57:54;;;;;;;17.08;12.38;;;22.40;64.50;;;;;;5034182;28;20115;-55
2022/05/19 06:00:20;;;;;;;16.27;11.98;;;22.40;64.40;;;;;;5034790;28;20085;-59
2022/05/19 06:02:45;;;;;;;21.73;13.98;;;22.40;64.30;;;;;;5034729;28;20405;-59
2022/05/19 06:05:11;;;;;;;20.55;13.50;;;22.40;64.00;;;;;;5034257;28;20489;-60
2022/05/19 06:07:37;;;;;;;16.80;12.75;;;22.40;63.80;;;;;;5034877;28;20111;-54
2022/05/19 06:10:03;;;;;;;14.63;10.65;;;22.40;63.70;;;;;;5053276;28;20126;-54
2022/05/19 06:12:29;;;;;;;17.05;10.75;;;22.40;63.70;;;;;;5053969;28;20052;-54
2022/05/19 06:14:56;;;;;;;17.10;10.52;;;22.40;63.70;;;;;;5054537;28;20037;-54
2022/05/19 06:17:22;;;;;;;14.40;10.30;;;22.50;63.60;;;;;;5054363;28;20055;-54
2022/05/19 06:19:48;;;;;;;15.30;9.05;;;22.50;63.60;;;;;;5053390;28;20052;-54
2022/05/19 06:22:13;;;;;;;16.40;8.90;;;22.50;63.50;;;;;;5054654;28;20116;-54
2022/05/19 06:24:39;;;;;;;12.55;9.27;;;22.50;63.40;;;;;;5053478;28;20496;-54
2022/05/19 06:27:05;;;;;;;14.23;9.32;;;22.50;63.30;;;;;;5054625;28;20041;-54
2022/05/19 06:29:31;;;;;;;10.48;7.93;;;22.50;63.50;;;;;;5053028;28;20044;-54
2022/05/19 06:31:56;;;;;;;13.02;8.80;;;22.50;63.50;;;;;;5053262;28;20056;-54
2022/05/19 06:34:22;;;;;;;15.85;8.45;;;22.50;63.40;;;;;;5054434;28;20048;-54
2022/05/19 06:36:47;;;;;;;11.68;8.25;;;22.60;63.50;;;;;;5053936;28;20396;-54
2022/05/19 06:39:16;;;;;;;13.43;8.18;;;22.60;63.50;;;;;;5053494;28;20052;-54
2022/05/19 06:42:00;;;;;;;10.57;7.82;;;22.60;63.50;;;;;;5053927;28;20048;-54
2022/05/19 06:44:36;;;;;;;13.38;8.18;;;22.60;63.60;;;;;;5048530;28;20057;-54
2022/05/19 06:47:03;;;;;;;12.60;8.20;;;22.70;63.60;;;;;;5053152;28;20111;-54
2022/05/19 06:49:29;;;;;;;12.68;7.55;;;22.70;63.50;;;;;;5053955;28;20045;-53
2022/05/19 06:51:55;;;;;;;13.88;8.15;;;22.70;63.50;;;;;;5053567;28;20037;-53
2022/05/19 06:54:20;;;;;;;11.05;7.30;;;22.70;63.50;;;;;;5053292;28;20106;-54
2022/05/19 06:56:46;;;;;;;11.95;7.43;;;22.70;63.40;;;;;;5053304;28;20122;-53
2022/05/19 06:59:12;;;;;;;11.00;6.18;;;22.80;63.50;;;;;;5053978;28;20033;-54
2022/05/19 07:01:37;;;;;;;12.50;6.90;;;22.80;63.40;;;;;;5053194;28;20675;-54
2022/05/19 07:04:03;;;;;;;12.73;6.03;;;22.80;63.40;;;;;;5053585;28;20041;-54
2022/05/19 07:06:28;;;;;;;8.60;5.78;;;22.80;63.40;;;;;;5053873;28;20045;-55
2022/05/19 07:08:54;;;;;;;10.70;6.18;;;22.80;63.30;;;;;;5052614;28;20033;-54
2022/05/19 07:11:26;;;;;;;9.88;5.97;;;22.80;63.30;;;;;;5053607;28;20392;-54
2022/05/19 07:13:57;;;;;;;7.45;5.03;;;22.80;63.30;;;;;;5052806;28;20049;-54
2022/05/19 07:16:22;;;;;;;9.88;5.15;;;22.80;63.30;;;;;;5053505;28;20080;-54
2022/05/19 07:18:48;;;;;;;8.95;5.35;;;22.90;63.30;;;;;;5052919;28;20396;-55
2022/05/19 07:21:16;;;;;;;7.20;5.20;;;22.90;63.30;;;;;;5052467;28;20056;-54
2022/05/19 07:23:42;;;;;;;10.32;5.32;;;22.90;63.30;;;;;;5052774;28;20503;-54
2022/05/19 07:26:07;;;;;;;9.63;5.13;;;23.00;63.40;;;;;;5053018;28;20049;-54
2022/05/19 07:28:33;;;;;;;8.90;4.88;;;22.90;63.90;;;;;;5052752;28;20550;-54
2022/05/19 07:30:59;;;;;;;7.07;4.28;;;23.00;63.40;;;;;;5053136;28;20055;-54
2022/05/19 07:33:28;;;;;;;6.85;4.50;;;23.00;63.40;;;;;;5053387;28;20049;-54
2022/05/19 07:35:54;;;;;;;9.45;4.30;;;23.00;63.40;;;;;;5042893;28;20124;-54
2022/05/19 07:38:19;;;;;;;6.75;4.25;;;23.00;63.40;;;;;;5041328;28;20117;-54
2022/05/19 07:40:45;;;;;;;7.53;4.45;;;23.00;63.40;;;;;;5049906;28;20045;-55
2022/05/19 07:45:55;;;;;;;6.50;4.18;;;23.00;63.40;;;;;;5032765;28;20054;-55
2022/05/19 07:48:20;;;;;;;7.43;4.10;;;23.00;63.50;;;;;;5033089;28;20041;-54
2022/05/19 07:50:46;;;;;;;6.38;4.32;;;23.00;63.50;;;;;;5031972;28;20072;-55
2022/05/19 07:53:11;;;;;;;7.00;3.72;;;23.00;63.50;;;;;;5033055;28;20088;-54
2022/05/19 07:55:37;;;;;;;7.07;3.97;;;23.00;63.50;;;;;;5040814;28;20124;-54
2022/05/19 07:58:03;;;;;;;7.10;4.03;;;23.00;63.60;;;;;;5043829;28;20045;-55
2022/05/19 08:00:29;;;;;;;6.90;4.32;;;23.00;63.60;;;;;;5040721;28;20400;-55
2022/05/19 08:02:54;;;;;;;9.27;4.18;;;22.90;63.60;;;;;;5042372;28;20527;-55
2022/05/19 08:05:20;;;;;;;5.72;3.83;;;23.00;63.70;;;;;;5041128;28;20045;-55
2022/05/19 08:07:46;;;;;;;6.55;4.20;;;23.00;63.70;;;;;;5035437;28;20045;-57
2022/05/19 08:10:20;;;;;;;6.10;3.95;;;23.00;63.70;;;;;;5031629;28;20057;-57
2022/05/19 08:15:36;;;;;;;10.15;4.80;;;22.90;63.60;;;;;;5043307;28;20046;-58
2022/05/19 08:18:10;;;;;;;8.05;4.00;;;22.90;63.90;;;;;;5039792;28;20583;-58
2022/05/19 08:20:39;;;;;;;7.70;4.60;;;22.90;64.00;;;;;;5043282;28;20049;-57
2022/05/19 08:23:05;;;;;;;7.03;4.32;;;22.90;64.30;;;;;;5029186;28;20052;-57
2022/05/19 08:25:31;;;;;;;7.65;4.72;;;22.90;64.50;;;;;;5027792;28;20041;-58
2022/05/19 08:27:56;;;;;;;6.85;4.57;;;23.00;64.80;;;;;;5030876;28;20044;-58
2022/05/19 08:30:22;;;;;;;7.63;4.20;;;22.90;64.90;;;;;;5031835;28;21039;-58
2022/05/19 08:32:47;;;;;;;9.05;5.05;;;23.00;65.00;;;;;;5029874;28;20041;-57
2022/05/19 08:35:13;;;;;;;8.45;4.93;;;23.00;65.20;;;;;;5031813;28;20037;-57
2022/05/19 08:37:38;;;;;;;8.35;4.85;;;23.00;65.20;;;;;;5031659;28;20045;-57
2022/05/19 08:40:05;;;;;;;7.78;4.70;;;23.00;65.20;;;;;;5030872;28;20049;-57
2022/05/19 08:42:33;;;;;;;7.05;4.65;;;23.00;65.20;;;;;;5031293;28;20085;-57
2022/05/19 08:44:59;;;;;;;8.27;4.70;;;23.00;65.30;;;;;;5046497;28;20042;-57
2022/05/19 08:47:28;;;;;;;7.63;4.18;;;23.00;65.50;;;;;;5030401;28;20045;-57
2022/05/19 08:50:03;;;;;;;8.52;4.75;;;23.00;65.40;;;;;;5046594;28;20052;-57
2022/05/19 08:52:34;;;;;;;8.18;5.05;;;23.00;65.60;;;;;;5043375;28;20454;-56
2022/05/19 08:55:00;;;;;;;7.43;5.30;;;23.00;65.60;;;;;;5046933;28;20077;-57
2022/05/19 08:57:35;;;;;;;11.38;6.40;;;23.00;65.70;;;;;;5032270;28;20072;-57
2022/05/19 09:00:17;;;;;;;11.32;5.53;;;23.00;65.70;;;;;;5043995;28;20366;-57
2022/05/19 09:03:02;;;;;;;9.85;6.88;;;23.00;65.50;;;;;;5031859;28;20033;-57
2022/05/19 09:05:39;;;;;;;11.88;7.88;;;23.00;65.40;;;;;;5032015;28;20052;-57
2022/05/19 09:08:25;;;;;;;13.93;7.78;;;23.00;65.50;;;;;;5046412;28;20038;-58
2022/05/19 09:11:06;;;;;;;14.07;6.90;;;23.00;65.60;;;;;;5031206;28;20251;-57
2022/05/19 09:13:51;;;;;;;13.60;6.95;;;23.00;65.70;;;;;;5031143;28;20464;-58
2022/05/19 09:16:22;;;;;;;10.25;6.82;;;23.00;65.70;;;;;;5031479;28;20054;-59
2022/05/19 09:18:56;;;;;;;12.40;7.63;;;23.00;65.70;;;;;;5046854;28;20045;-58
2022/05/19 09:21:21;;;;;;;12.27;7.40;;;23.00;65.90;;;;;;5029820;28;20052;-58
2022/05/19 09:23:47;;;;;;;15.05;7.72;;;23.10;66.00;;;;;;5031594;28;20045;-58
2022/05/19 09:26:37;;;;;;;12.32;7.72;;;23.10;66.00;;;;;;5047013;28;20037;-58
2022/05/19 09:29:08;;;;;;;13.13;7.60;;;23.10;66.10;;;;;;5030615;28;20416;-58
2022/05/19 09:31:42;;;;;;;12.02;7.82;;;23.10;66.10;;;;;;5031658;28;20505;-58
2022/05/19 09:34:09;;;;;;;11.25;7.07;;;23.20;66.10;;;;;;5031437;28;20420;-58
2022/05/19 09:36:41;;;;;;;10.98;7.55;;;23.20;66.00;;;;;;5031002;28;20041;-57
2022/05/19 09:39:09;;;;;;;11.18;7.57;;;23.20;65.90;;;;;;5031530;28;20489;-58
2022/05/19 09:41:39;;;;;;;12.35;8.38;;;23.20;65.80;;;;;;5042277;28;20053;-58
2022/05/19 09:44:05;;;;;;;15.15;8.20;;;23.20;65.90;;;;;;5037164;28;20037;-58
2022/05/19 09:46:50;;;;;;;12.80;7.82;;;23.20;65.90;;;;;;5062097;28;20048;-58
2022/05/19 09:49:24;;;;;;;10.30;7.43;;;23.20;66.00;;;;;;5054417;28;20072;-59
2022/05/19 09:51:49;;;;;;;12.38;7.03;;;23.30;66.10;;;;;;5069397;28;20033;-58
2022/05/19 09:54:15;;;;;;;12.32;7.18;;;23.30;66.00;;;;;;5055045;28;20094;-57
2022/05/19 09:56:51;;;;;;;10.32;6.60;;;23.30;65.90;;;;;;5053958;28;20045;-55
2022/05/19 09:59:25;;;;;;;9.85;7.03;;;23.40;65.90;;;;;;5054853;28;20057;-53
2022/05/19 10:01:54;;;;;;;12.23;6.25;;;23.40;65.80;;;;;;5070167;28;20053;-54
2022/05/19 10:04:41;;;;;;;12.25;6.63;;;23.40;65.70;;;;;;5052372;28;20049;-54
2022/05/19 10:07:24;;;;;;;9.97;5.80;;;23.40;65.90;;;;;;5053287;28;20056;-52
2022/05/19 10:09:55;;;;;;;8.85;5.88;;;23.40;65.90;;;;;;5068272;28;20297;-54
2022/05/19 10:12:32;;;;;;;8.98;5.78;;;23.40;65.90;;;;;;5054892;28;20047;-53
2022/05/19 10:15:00;;;;;;;10.83;5.60;;;23.50;66.10;;;;;;5066321;28;20577;-54
2022/05/19 10:17:38;;;;;;;7.85;4.95;;;23.50;66.10;;;;;;5052508;28;20060;-54
2022/05/19 10:20:09;;;;;;;;;;;23.50;66.10;;;;;;5054031;28;20492;-53
2022/05/19 10:23:14;;;;;;;9.23;5.28;;;23.50;66.00;;;;;;5053926;28;19928;-54
2022/05/19 10:25:39;;;;;;;6.90;4.28;;;23.50;66.00;;;;;;5054047;28;20083;-54
2022/05/19 10:31:14;;;;;;;9.30;4.40;;;23.60;65.80;;;;;;5053351;28;20049;-54
2022/05/19 10:34:20;;;;;;;7.80;4.70;;;23.60;65.80;;;;;;5053943;28;20386;-55
2022/05/19 10:37:19;;;;;;;8.45;5.30;;;23.60;65.90;;;;;;5053962;28;20041;-54
2022/05/19 10:39:55;;;;;;;8.68;4.82;;;23.60;65.90;;;;;;5051631;28;20079;-55
2022/05/19 10:42:49;;;;;;;8.65;4.63;;;23.60;65.80;;;;;;5054081;28;20104;-55
2022/05/19 10:45:27;;;;;;;6.82;5.00;;;23.60;65.80;;;;;;5052416;28;20131;-54
2022/05/19 10:48:02;;;;;;;7.00;4.90;;;23.70;65.80;;;;;;5053573;28;20049;-55
2022/05/19 10:50:35;;;;;;;7.45;4.80;;;23.70;65.80;;;;;;5053986;28;20469;-54
2022/05/19 10:53:31;;;;;;;6.00;4.95;;;23.70;65.80;;;;;;5052563;28;20078;-55
2022/05/19 10:56:06;;;;;;;7.75;5.45;;;23.70;65.80;;;;;;5053138;28;20056;-55
2022/05/19 10:58:53;;;;;;;9.82;5.47;;;23.70;65.80;;;;;;5053611;28;20476;-54
2022/05/19 11:01:37;;;;;;;10.43;6.68;;;23.70;65.80;;;;;;5053440;28;20488;-55
2022/05/19 11:04:33;;;;;;;9.40;5.60;;;23.70;65.80;;;;;;5053305;28;20045;-55
2022/05/19 11:07:23;;;;;;;12.15;6.20;;;23.70;65.80;;;;;;5049529;28;20095;-55
2022/05/19 11:10:26;;;;;;;12.20;6.65;;;23.70;66.00;;;;;;5051720;28;20057;-55
2022/05/19 11:13:12;;;;;;;14.73;6.65;;;23.70;66.10;;;;;;5053220;28;20080;-55
2022/05/19 11:15:57;;;;;;;11.93;6.43;;;23.70;66.10;;;;;;5052406;28;20041;-55
2022/05/19 11:18:34;;;;;;;11.20;6.05;;;23.70;66.00;;;;;;5052261;28;20067;-55
2022/05/19 11:21:12;;;;;;;8.68;5.80;;;23.70;66.10;;;;;;5050664;28;20550;-54
2022/05/19 11:24:21;;;;;;;9.55;6.13;;;23.70;66.10;;;;;;5052137;28;20079;-55
2022/05/19 11:26:57;;;;;;;11.30;6.20;;;23.70;66.00;;;;;;5052657;28;20123;-54
2022/05/19 11:29:29;;;;;;;10.13;6.20;;;23.70;65.90;;;;;;5059191;28;20048;-54
2022/05/19 11:32:06;;;;;;;11.10;6.28;;;23.70;65.90;;;;;;5052666;28;20492;-54
2022/05/19 11:35:04;;;;;;;11.18;6.20;;;23.70;65.80;;;;;;5056809;28;20048;-54
2022/05/19 11:37:45;;;;;;;10.55;5.93;;;23.70;65.90;;;;;;5055746;28;20107;-54
2022/05/19 11:40:16;;;;;;;11.38;6.05;;;23.70;65.80;;;;;;5057859;28;20079;-54
2022/05/19 11:43:00;;;;;;;10.93;5.97;;;23.70;65.80;;;;;;5066787;28;20040;-54
2022/05/19 11:45:39;;;;;;;9.18;6.63;;;23.70;65.70;;;;;;5054581;28;20032;-55
2022/05/19 11:58:03;;;;;;;9.82;5.53;;;23.80;65.30;;;;;;5072682;28;20480;-56
2022/05/19 12:00:32;;;;;;;7.80;4.75;;;23.90;65.30;;;;;;5071607;28;20122;-56
2022/05/19 12:03:14;;;;;;;9.60;4.88;;;23.90;65.20;;;;;;5053999;28;20045;-55
2022/05/19 12:06:00;;;;;;;8.65;4.80;;;23.90;65.00;;;;;;5071017;28;20045;-55
2022/05/19 12:08:44;;;;;;;8.27;4.95;;;23.90;64.90;;;;;;5071108;28;20036;-57
2022/05/19 12:11:12;;;;;;;11.23;4.95;;;23.90;64.80;;;;;;5071587;28;20476;-56
2022/05/19 12:13:39;;;;;;;8.77;4.65;;;23.90;64.80;;;;;;5072642;28;20040;-56
2022/05/19 12:16:10;;;;;;;8.80;5.00;;;23.90;64.70;;;;;;5070865;28;20509;-56
2022/05/19 12:18:38;;;;;;;8.93;5.25;;;23.90;64.70;;;;;;5070727;28;20089;-56
2022/05/19 12:21:03;;;;;;;9.02;4.40;;;23.90;64.70;;;;;;5072343;28;20040;-59
2022/05/19 12:23:38;;;;;;;9.80;4.78;;;23.90;64.60;;;;;;5071619;28;20373;-56
2022/05/19 12:26:17;;;;;;;9.57;5.00;;;23.90;64.60;;;;;;5070791;28;20037;-55
2022/05/19 12:29:12;;;;;;;8.95;5.07;;;23.90;64.60;;;;;;5052258;28;20120;-56
2022/05/19 12:31:59;;;;;;;10.43;4.60;;;23.90;64.50;;;;;;5050645;28;20040;-55
2022/05/19 12:34:33;;;;;;;9.10;4.18;;;23.90;64.60;;;;;;5051060;28;20041;-55
2022/05/19 12:37:36;;;;;;;7.07;3.95;;;23.90;64.60;;;;;;5050694;28;20488;-55
2022/05/19 12:40:18;;;;;;;6.97;4.40;;;23.90;64.50;;;;;;5051374;28;20055;-55
2022/05/19 12:42:43;;;;;;;9.25;4.10;;;23.90;64.50;;;;;;5067013;28;20506;-56
2022/05/19 12:45:25;;;;;;;8.35;3.97;;;23.90;64.60;;;;;;5051104;28;20033;-55
2022/05/19 12:47:59;;;;;;;9.18;4.13;;;23.90;64.60;;;;;;5041139;28;20515;-55
2022/05/19 12:50:42;;;;;;;7.68;3.80;;;23.90;64.60;;;;;;5049058;28;20492;-55
2022/05/19 12:53:29;;;;;;;7.43;3.63;;;23.90;64.60;;;;;;5048757;28;20392;-55
2022/05/19 12:55:56;;;;;;;6.63;3.95;;;23.90;64.70;;;;;;5050150;28;20065;-56
2022/05/19 12:58:37;;;;;;;6.50;4.10;;;23.80;64.70;;;;;;5049897;28;20072;-55
2022/05/19 13:01:34;;;;;;;7.07;3.83;;;23.80;64.70;;;;;;5051712;28;20045;-55
2022/05/19 13:04:16;;;;;;;7.53;4.07;;;23.80;64.80;;;;;;5051249;28;20052;-55
2022/05/19 13:06:53;;;;;;;5.70;3.47;;;23.70;64.80;;;;;;5049119;28;20041;-55
2022/05/19 13:09:28;;;;;;;7.50;4.07;;;23.70;64.90;;;;;;5050813;28;20041;-55
2022/05/19 13:11:55;;;;;;;6.78;4.20;;;23.70;64.90;;;;;;5050411;28;20060;-55
2022/05/19 13:14:28;;;;;;;8.13;3.75;;;23.70;64.90;;;;;;5050011;28;20049;-56
2022/05/19 13:16:54;;;;;;;10.10;4.22;;;23.70;65.00;;;;;;5050177;28;20052;-55
2022/05/19 13:19:26;;;;;;;6.90;3.70;;;23.70;65.00;;;;;;5050910;28;20041;-55
2022/05/19 13:21:51;;;;;;;8.98;3.85;;;23.70;65.00;;;;;;5053425;28;20048;-55